createdAt,value
2023-05-15T00:00:32.013Z,3.87
2023-05-15T00:02:03.329Z,3.97
2023-05-15T00:03:34.757Z,3.90
2023-05-15T00:05:06.192Z,4.11
2023-05-15T00:06:37.600Z,4.14
2023-05-15T00:08:08.957Z,4.07
2023-05-15T00:09:40.387Z,4.18
2023-05-15T00:11:11.878Z,4.62
2023-05-15T00:12:43.493Z,4.22
2023-05-15T00:14:14.924Z,4.40
2023-05-15T00:15:51.469Z,4.28
2023-05-15T00:17:22.920Z,4.30
2023-05-15T00:18:54.448Z,4.17
2023-05-15T00:20:25.828Z,4.01
2023-05-15T00:21:57.277Z,3.83
2023-05-15T00:23:28.699Z,3.70
2023-05-15T00:25:00.147Z,3.64
2023-05-15T00:26:31.970Z,3.99
2023-05-15T00:28:03.273Z,3.80
2023-05-15T00:29:34.622Z,3.90
2023-05-15T00:31:05.932Z,4.00
2023-05-15T00:32:37.399Z,4.23
2023-05-15T00:34:08.937Z,4.26
2023-05-15T00:35:40.278Z,4.21
2023-05-15T00:37:11.594Z,4.11
2023-05-15T00:38:43.014Z,4.55
2023-05-15T00:40:14.548Z,4.25
2023-05-15T00:41:45.882Z,4.43
2023-05-15T00:43:17.269Z,4.51
2023-05-15T00:44:48.603Z,4.87
2023-05-15T00:46:19.944Z,4.95
2023-05-15T00:47:51.494Z,5.05
2023-05-15T00:49:22.880Z,5.15
2023-05-15T00:50:54.182Z,5.10
2023-05-15T00:52:25.868Z,4.93
2023-05-15T00:53:57.281Z,5.14
2023-05-15T00:55:28.667Z,5.12
2023-05-15T00:57:00.373Z,5.12
2023-05-15T00:58:31.734Z,5.09
2023-05-15T01:00:03.121Z,4.98
2023-05-15T01:01:34.641Z,4.67
2023-05-15T01:03:06.445Z,4.72
2023-05-15T01:04:38.011Z,4.81
2023-05-15T01:06:09.495Z,4.77
2023-05-15T01:07:40.835Z,4.89
2023-05-15T01:09:12.246Z,5.04
2023-05-15T01:10:43.766Z,4.74
2023-05-15T01:12:15.100Z,4.67
2023-05-15T01:13:46.529Z,4.74
2023-05-15T01:15:17.921Z,4.87
2023-05-15T01:16:49.315Z,4.54
2023-05-15T01:18:21.350Z,5.09
2023-05-15T01:19:52.899Z,4.34
2023-05-15T01:21:24.501Z,4.46
2023-05-15T01:22:55.812Z,4.91
2023-05-15T01:24:27.091Z,4.57
2023-05-15T01:25:58.582Z,4.75
2023-05-15T01:27:29.902Z,4.83
2023-05-15T01:29:01.185Z,4.80
2023-05-15T01:30:32.506Z,4.43
2023-05-15T01:32:04.081Z,4.59
2023-05-15T01:33:35.732Z,4.59
2023-05-15T01:35:07.133Z,4.83
2023-05-15T01:36:39.013Z,4.69
2023-05-15T01:38:10.326Z,4.88
2023-05-15T01:39:41.657Z,4.93
2023-05-15T01:41:12.920Z,5.08
2023-05-15T01:42:44.365Z,4.80
2023-05-15T01:44:16.050Z,5.00
2023-05-15T01:45:47.372Z,4.97
2023-05-15T01:47:23.875Z,5.22
2023-05-15T01:48:55.301Z,5.36
2023-05-15T01:50:26.907Z,5.43
2023-05-15T01:51:58.353Z,5.58
2023-05-15T01:53:29.698Z,6.00
2023-05-15T01:55:01.080Z,5.86
2023-05-15T01:56:32.406Z,5.93
2023-05-15T01:58:03.723Z,5.98
2023-05-15T01:59:35.004Z,5.71
2023-05-15T02:01:06.304Z,6.16
2023-05-15T02:02:37.829Z,5.77
2023-05-15T02:04:09.286Z,6.33
2023-05-15T02:05:40.723Z,6.32
2023-05-15T02:07:11.998Z,6.40
2023-05-15T02:08:43.343Z,5.92
2023-05-15T02:10:19.902Z,5.72
2023-05-15T02:11:51.411Z,5.83
2023-05-15T02:13:22.729Z,6.37
2023-05-15T02:14:54.022Z,6.37
2023-05-15T02:16:30.654Z,6.35
2023-05-15T02:18:03.247Z,6.41
2023-05-15T02:19:34.963Z,6.47
2023-05-15T02:21:06.380Z,6.44
2023-05-15T02:22:37.981Z,6.57
2023-05-15T02:24:09.303Z,7.04
2023-05-15T02:25:40.796Z,7.02
2023-05-15T02:27:12.161Z,7.07
2023-05-15T02:28:43.543Z,7.11
2023-05-15T02:30:14.882Z,7.47
2023-05-15T02:31:46.856Z,7.27
2023-05-15T02:33:18.291Z,7.03
2023-05-15T02:34:50.147Z,7.22
2023-05-15T02:36:21.640Z,7.40
2023-05-15T02:37:52.921Z,7.56
2023-05-15T02:39:24.332Z,7.21
2023-05-15T02:40:55.610Z,7.37
2023-05-15T02:42:27.063Z,7.60
2023-05-15T02:43:58.596Z,7.79
2023-05-15T02:45:29.939Z,8.13
2023-05-15T02:47:01.330Z,8.34
2023-05-15T02:48:32.769Z,8.04
2023-05-15T02:50:04.064Z,7.94
2023-05-15T02:51:35.366Z,7.97
2023-05-15T02:53:06.705Z,8.39
2023-05-15T02:54:38.537Z,9.03
2023-05-15T02:56:09.888Z,9.06
2023-05-15T02:57:41.216Z,8.91
2023-05-15T02:59:12.577Z,9.53
2023-05-15T03:00:43.974Z,9.58
2023-05-15T03:02:16.268Z,9.84
2023-05-15T03:03:49.244Z,10.15
2023-05-15T03:05:20.599Z,10.03
2023-05-15T03:06:52.224Z,10.04
2023-05-15T03:08:23.571Z,10.45
2023-05-15T03:09:54.896Z,10.52
2023-05-15T03:11:26.364Z,10.53
2023-05-15T03:12:57.816Z,10.86
2023-05-15T03:14:29.254Z,11.12
2023-05-15T03:16:00.583Z,11.44
2023-05-15T03:17:31.920Z,11.50
2023-05-15T03:19:03.318Z,12.17
2023-05-15T03:20:35.078Z,12.66
2023-05-15T03:22:06.404Z,14.04
2023-05-15T03:23:37.958Z,14.40
2023-05-15T03:25:09.611Z,14.55
2023-05-15T03:26:40.953Z,15.20
2023-05-15T03:28:12.666Z,15.77
2023-05-15T03:29:43.985Z,15.96
2023-05-15T03:31:15.229Z,16.64
2023-05-15T03:32:46.638Z,17.81
2023-05-15T03:34:18.398Z,20.06
2023-05-15T03:35:49.713Z,19.85
2023-05-15T03:37:21.014Z,20.60
2023-05-15T03:38:52.285Z,22.85
2023-05-15T03:40:23.643Z,25.68
2023-05-15T03:41:55.348Z,25.45
2023-05-15T03:43:26.865Z,25.73
2023-05-15T03:44:58.214Z,26.61
2023-05-15T03:46:29.722Z,26.67
2023-05-15T03:48:01.140Z,27.63
2023-05-15T03:49:32.517Z,29.74
2023-05-15T03:51:03.773Z,30.55
2023-05-15T03:52:35.036Z,31.72
2023-05-15T03:54:06.382Z,30.88
2023-05-15T03:55:37.882Z,32.57
2023-05-15T03:57:09.132Z,33.57
2023-05-15T03:58:40.454Z,34.86
2023-05-15T04:00:11.953Z,35.23
2023-05-15T04:01:59.452Z,35.86
2023-05-15T04:03:35.365Z,35.62
2023-05-15T04:05:06.826Z,36.36
2023-05-15T04:06:38.281Z,36.62
2023-05-15T04:08:09.718Z,37.92
2023-05-15T04:09:40.996Z,37.33
2023-05-15T04:11:12.413Z,37.29
2023-05-15T04:12:43.918Z,38.17
2023-05-15T04:14:15.214Z,38.07
2023-05-15T04:15:46.603Z,37.56
2023-05-15T04:17:18.099Z,38.58
2023-05-15T04:18:49.645Z,38.88
2023-05-15T04:20:21.156Z,40.57
2023-05-15T04:21:52.441Z,40.82
2023-05-15T04:23:24.504Z,41.95
2023-05-15T04:24:55.783Z,40.68
2023-05-15T04:26:27.127Z,42.17
2023-05-15T04:27:58.569Z,42.31
2023-05-15T04:29:30.132Z,43.28
2023-05-15T04:31:01.702Z,44.48
2023-05-15T04:32:33.522Z,45.75
2023-05-15T04:34:05.057Z,45.61
2023-05-15T04:35:36.437Z,45.57
2023-05-15T04:37:12.762Z,46.39
2023-05-15T04:38:44.336Z,43.61
2023-05-15T04:40:15.787Z,45.38
2023-05-15T04:41:48.834Z,46.17
2023-05-15T04:43:20.552Z,47.88
2023-05-15T04:44:52.187Z,48.75
2023-05-15T04:46:23.502Z,49.71
2023-05-15T04:47:54.919Z,48.86
2023-05-15T04:49:26.326Z,50.33
2023-05-15T04:50:57.643Z,50.75
2023-05-15T04:52:28.901Z,50.19
2023-05-15T04:54:00.324Z,51.00
2023-05-15T04:55:33.619Z,52.30
2023-05-15T04:57:05.112Z,52.17
2023-05-15T04:58:36.633Z,52.02
2023-05-15T05:00:07.973Z,52.94
2023-05-15T05:01:39.435Z,53.33
2023-05-15T05:03:10.892Z,52.40
2023-05-15T05:04:42.485Z,53.56
2023-05-15T05:06:13.839Z,54.34
2023-05-15T05:07:45.199Z,53.44
2023-05-15T05:09:16.656Z,55.25
2023-05-15T05:10:48.036Z,54.46
2023-05-15T05:12:25.930Z,55.02
2023-05-15T05:13:58.831Z,53.99
2023-05-15T05:15:41.463Z,53.84
2023-05-15T05:17:23.181Z,55.02
2023-05-15T05:18:54.741Z,53.84
2023-05-15T05:20:36.523Z,52.98
2023-05-15T05:22:07.992Z,54.60
2023-05-15T05:23:39.310Z,52.38
2023-05-15T05:25:10.564Z,51.84
2023-05-15T05:26:41.950Z,51.72
2023-05-15T05:28:13.522Z,50.73
2023-05-15T05:29:45.215Z,49.01
2023-05-15T05:31:16.966Z,50.95
2023-05-15T05:32:48.371Z,49.39
2023-05-15T05:34:19.690Z,50.01
2023-05-15T05:35:50.980Z,49.35
2023-05-15T05:37:22.300Z,50.49
2023-05-15T05:38:53.587Z,50.49
2023-05-15T05:40:24.924Z,51.36
2023-05-15T05:41:56.360Z,51.23
2023-05-15T05:43:27.662Z,52.15
2023-05-15T05:45:08.470Z,53.75
2023-05-15T05:46:39.979Z,54.72
2023-05-15T05:48:15.784Z,55.01
2023-05-15T05:49:48.336Z,55.63
2023-05-15T05:51:20.114Z,54.44
2023-05-15T05:52:51.879Z,53.67
2023-05-15T05:54:23.189Z,54.04
2023-05-15T05:55:54.475Z,52.73
2023-05-15T05:57:25.743Z,50.11
2023-05-15T05:58:57.287Z,47.89
2023-05-15T06:00:28.865Z,47.92
2023-05-15T06:02:00.478Z,47.70
2023-05-15T06:03:31.948Z,45.94
2023-05-15T06:05:03.515Z,44.80
2023-05-15T06:06:34.932Z,45.96
2023-05-15T06:08:06.378Z,45.82
2023-05-15T06:09:37.832Z,44.58
2023-05-15T06:11:09.224Z,43.38
2023-05-15T06:12:40.506Z,46.16
2023-05-15T06:14:12.103Z,44.86
2023-05-15T06:15:44.196Z,44.63
2023-05-15T06:17:15.666Z,46.73
2023-05-15T06:18:47.356Z,48.53
2023-05-15T06:20:18.783Z,48.49
2023-05-15T06:21:50.126Z,50.22
2023-05-15T06:23:24.272Z,49.64
2023-05-15T06:24:55.986Z,47.66
2023-05-15T06:26:27.465Z,46.80
2023-05-15T06:27:58.842Z,46.62
2023-05-15T06:29:30.166Z,46.07
2023-05-15T06:31:01.695Z,46.12
2023-05-15T06:32:34.487Z,43.78
2023-05-15T06:34:06.225Z,42.28
2023-05-15T06:35:37.622Z,42.08
2023-05-15T06:37:09.028Z,40.64
2023-05-15T06:38:40.642Z,41.02
2023-05-15T06:40:11.937Z,41.55
2023-05-15T06:41:43.233Z,41.44
2023-05-15T06:43:14.695Z,41.13
2023-05-15T06:44:46.030Z,41.71
2023-05-15T06:46:17.580Z,40.84
2023-05-15T06:47:48.990Z,40.44
2023-05-15T06:49:20.581Z,39.53
2023-05-15T06:50:51.978Z,40.66
2023-05-15T06:52:23.262Z,39.76
2023-05-15T06:53:54.703Z,40.27
2023-05-15T06:55:27.307Z,40.68
2023-05-15T06:56:58.768Z,39.81
2023-05-15T06:58:30.362Z,37.98
2023-05-15T07:00:01.876Z,38.85
2023-05-15T07:01:52.452Z,39.30
2023-05-15T07:03:23.828Z,38.97
2023-05-15T07:04:55.449Z,39.09
2023-05-15T07:06:26.858Z,39.42
2023-05-15T07:07:58.379Z,40.06
2023-05-15T07:09:29.690Z,40.69
2023-05-15T07:11:01.534Z,41.78
2023-05-15T07:12:32.948Z,41.95
2023-05-15T07:14:04.662Z,42.94
2023-05-15T07:15:35.971Z,42.26
2023-05-15T07:17:07.330Z,42.98
2023-05-15T07:18:43.804Z,43.50
2023-05-15T07:20:15.267Z,46.06
2023-05-15T07:21:46.736Z,46.94
2023-05-15T07:23:18.147Z,45.97
2023-05-15T07:24:49.486Z,46.40
2023-05-15T07:26:32.798Z,46.03
2023-05-15T07:28:10.044Z,47.76
2023-05-15T07:29:41.483Z,48.55
2023-05-15T07:31:12.940Z,49.29
2023-05-15T07:32:44.606Z,50.12
2023-05-15T07:34:16.305Z,53.38
2023-05-15T07:35:47.635Z,54.66
2023-05-15T07:37:19.060Z,53.90
2023-05-15T07:38:50.490Z,51.80
2023-05-15T07:40:21.917Z,52.90
2023-05-15T07:41:53.217Z,53.32
2023-05-15T07:43:24.541Z,54.95
2023-05-15T07:44:55.946Z,54.28
2023-05-15T07:46:27.399Z,55.36
2023-05-15T07:47:58.874Z,56.88
2023-05-15T07:49:30.284Z,59.40
2023-05-15T07:51:01.881Z,61.25
2023-05-15T07:52:33.500Z,59.14
2023-05-15T07:54:04.823Z,53.70
2023-05-15T07:55:36.474Z,53.36
2023-05-15T07:57:07.980Z,53.07
2023-05-15T07:58:39.305Z,51.79
2023-05-15T08:00:10.821Z,51.86
2023-05-15T08:01:42.180Z,49.34
2023-05-15T08:03:13.694Z,48.65
2023-05-15T08:04:45.241Z,49.93
2023-05-15T08:06:16.581Z,48.81
2023-05-15T08:07:47.915Z,48.72
2023-05-15T08:09:19.453Z,48.37
2023-05-15T08:10:50.879Z,48.64
2023-05-15T08:12:22.316Z,47.92
2023-05-15T08:13:53.846Z,48.55
2023-05-15T08:15:25.674Z,48.80
2023-05-15T08:16:57.253Z,49.01
2023-05-15T08:18:28.691Z,49.53
2023-05-15T08:20:00.242Z,47.92
2023-05-15T08:21:31.580Z,47.19
2023-05-15T08:23:03.191Z,44.71
2023-05-15T08:24:34.736Z,44.29
2023-05-15T08:26:06.113Z,44.50
2023-05-15T08:27:37.530Z,44.17
2023-05-15T08:29:08.852Z,44.54
2023-05-15T08:30:40.300Z,43.80
2023-05-15T08:32:12.031Z,42.12
2023-05-15T08:33:43.374Z,41.49
2023-05-15T08:35:14.734Z,42.94
2023-05-15T08:36:46.152Z,40.61
2023-05-15T08:38:17.881Z,40.17
2023-05-15T08:39:49.217Z,39.65
2023-05-15T08:41:32.612Z,39.24
2023-05-15T08:43:10.525Z,38.35
2023-05-15T08:44:42.156Z,38.18
2023-05-15T08:46:13.602Z,38.56
2023-05-15T08:47:45.062Z,38.01
2023-05-15T08:49:16.577Z,35.44
2023-05-15T08:50:48.117Z,35.48
2023-05-15T08:52:19.652Z,35.42
2023-05-15T08:53:51.169Z,35.13
2023-05-15T08:55:22.517Z,33.71
2023-05-15T08:56:54.121Z,32.72
2023-05-15T08:58:25.550Z,28.85
2023-05-15T08:59:56.936Z,27.57
2023-05-15T09:01:28.455Z,29.49
2023-05-15T09:03:00.040Z,28.75
2023-05-15T09:04:31.449Z,29.92
2023-05-15T09:06:02.760Z,27.64
2023-05-15T09:07:34.215Z,27.28
2023-05-15T09:09:05.692Z,27.04
2023-05-15T09:10:37.021Z,26.91
2023-05-15T09:12:08.521Z,26.98
2023-05-15T09:13:39.881Z,26.07
2023-05-15T09:15:11.180Z,25.67
2023-05-15T09:16:42.760Z,25.10
2023-05-15T09:18:14.159Z,24.29
2023-05-15T09:19:45.625Z,24.01
2023-05-15T09:21:17.059Z,23.73
2023-05-15T09:22:48.532Z,22.16
2023-05-15T09:24:19.993Z,22.58
2023-05-15T09:25:51.315Z,22.42
2023-05-15T09:27:23.149Z,21.94
2023-05-15T09:28:54.589Z,21.33
2023-05-15T09:30:25.940Z,20.39
2023-05-15T09:31:57.291Z,17.42
2023-05-15T09:33:28.707Z,18.22
2023-05-15T09:35:00.193Z,18.09
2023-05-15T09:36:31.601Z,17.73
2023-05-15T09:38:02.917Z,16.83
2023-05-15T09:39:34.377Z,16.50
2023-05-15T09:41:05.810Z,14.96
2023-05-15T09:42:37.152Z,14.83
2023-05-15T09:44:08.587Z,14.59
2023-05-15T09:45:39.994Z,14.76
2023-05-15T09:47:11.758Z,15.12
2023-05-15T09:48:43.332Z,14.64
2023-05-15T09:50:14.871Z,14.44
2023-05-15T09:51:46.232Z,15.16
2023-05-15T09:53:21.332Z,13.55
2023-05-15T09:54:53.407Z,13.60
2023-05-15T09:56:24.863Z,13.24
2023-05-15T09:57:56.382Z,14.34
2023-05-15T09:59:27.921Z,14.11
2023-05-15T10:00:59.307Z,13.81
2023-05-15T10:02:30.761Z,14.12
2023-05-15T10:04:02.444Z,13.84
2023-05-15T10:05:43.151Z,14.28
2023-05-15T10:07:15.475Z,13.33
2023-05-15T10:08:46.932Z,14.29
2023-05-15T10:10:18.323Z,14.14
2023-05-15T10:11:49.883Z,14.24
2023-05-15T10:13:21.729Z,14.43
2023-05-15T10:14:53.166Z,13.66
2023-05-15T10:16:24.846Z,13.84
2023-05-15T10:17:56.481Z,14.36
2023-05-15T10:19:28.536Z,13.83
2023-05-15T10:21:00.051Z,13.79
2023-05-15T10:22:31.459Z,13.40
2023-05-15T10:24:02.904Z,13.77
2023-05-15T10:25:34.482Z,13.58
2023-05-15T10:27:05.866Z,14.37
2023-05-15T10:28:44.881Z,14.35
2023-05-15T10:30:16.634Z,13.93
2023-05-15T10:31:48.188Z,14.27
2023-05-15T10:33:24.624Z,14.60
2023-05-15T10:34:55.985Z,14.74
2023-05-15T10:36:27.416Z,14.51
2023-05-15T10:37:58.815Z,13.92
2023-05-15T10:39:30.195Z,13.75
2023-05-15T10:41:15.824Z,13.52
2023-05-15T10:42:48.853Z,13.91
2023-05-15T10:44:20.780Z,13.47
2023-05-15T10:45:52.183Z,13.51
2023-05-15T10:47:23.656Z,14.04
2023-05-15T10:49:00.225Z,13.62
2023-05-15T10:50:31.654Z,13.99
2023-05-15T10:52:03.127Z,14.11
2023-05-15T10:53:34.589Z,14.64
2023-05-15T10:55:06.074Z,13.04
2023-05-15T10:56:38.873Z,12.28
2023-05-15T10:58:10.411Z,12.47
2023-05-15T10:59:41.885Z,12.04
2023-05-15T11:01:13.343Z,11.73
2023-05-15T11:02:44.945Z,11.31
2023-05-15T11:04:16.596Z,10.72
2023-05-15T11:05:48.287Z,10.63
2023-05-15T11:07:19.707Z,11.52
2023-05-15T11:08:51.247Z,11.14
2023-05-15T11:10:22.792Z,10.79
2023-05-15T11:11:54.526Z,9.95
2023-05-15T11:13:26.029Z,10.49
2023-05-15T11:14:57.523Z,10.28
2023-05-15T11:16:29.057Z,10.34
2023-05-15T11:18:00.666Z,10.00
2023-05-15T11:19:32.148Z,10.00
2023-05-15T11:21:03.712Z,10.35
2023-05-15T11:22:35.145Z,10.45
2023-05-15T11:24:06.782Z,9.52
2023-05-15T11:25:38.245Z,9.53
2023-05-15T11:27:09.673Z,10.04
2023-05-15T11:28:41.239Z,9.53
2023-05-15T11:30:12.674Z,9.64
2023-05-15T11:31:44.149Z,8.82
2023-05-15T11:33:15.637Z,8.77
2023-05-15T11:34:47.223Z,9.60
2023-05-15T11:36:18.838Z,9.12
2023-05-15T11:37:50.339Z,9.31
2023-05-15T11:39:22.247Z,9.97
2023-05-15T11:40:53.726Z,9.52
2023-05-15T11:42:26.179Z,9.18
2023-05-15T11:43:57.653Z,8.99
2023-05-15T11:45:29.221Z,9.16
2023-05-15T11:47:01.018Z,7.92
2023-05-15T11:48:32.797Z,7.78
2023-05-15T11:50:04.285Z,7.17
2023-05-15T11:51:36.126Z,6.84
2023-05-15T11:53:07.702Z,6.74
2023-05-15T11:54:39.246Z,6.39
2023-05-15T11:56:10.910Z,5.39
2023-05-15T11:57:42.476Z,5.68
2023-05-15T11:59:14.046Z,5.59
2023-05-15T12:00:45.640Z,5.09
2023-05-15T12:02:17.177Z,4.88
2023-05-15T12:03:48.853Z,4.68
2023-05-15T12:05:20.473Z,5.41
2023-05-15T12:06:52.080Z,6.34
2023-05-15T12:08:23.588Z,6.26
2023-05-15T12:09:55.120Z,5.44
2023-05-15T12:11:26.610Z,5.41
2023-05-15T12:12:58.131Z,5.70
2023-05-15T12:14:29.586Z,5.43
2023-05-15T12:16:01.173Z,5.54
2023-05-15T12:17:32.859Z,5.84
2023-05-15T12:19:04.492Z,5.58
2023-05-15T12:20:36.258Z,5.51
2023-05-15T12:22:07.778Z,5.16
2023-05-15T12:23:39.352Z,4.74
2023-05-15T12:25:10.880Z,5.02
2023-05-15T12:26:42.666Z,5.31
2023-05-15T12:28:14.195Z,5.40
2023-05-15T12:29:45.831Z,5.73
2023-05-15T12:31:17.383Z,5.68
2023-05-15T12:32:49.211Z,5.92
2023-05-15T12:34:20.859Z,5.88
2023-05-15T12:35:52.327Z,6.18
2023-05-15T12:37:23.835Z,6.04
2023-05-15T12:38:55.358Z,5.64
2023-05-15T12:40:27.410Z,5.26
2023-05-15T12:41:59.033Z,5.53
2023-05-15T12:43:30.504Z,5.36
2023-05-15T12:45:02.090Z,5.32
2023-05-15T12:46:33.676Z,4.95
2023-05-15T12:48:06.474Z,4.87
2023-05-15T12:49:38.021Z,5.07
2023-05-15T12:51:09.577Z,4.85
2023-05-15T12:52:41.450Z,4.86
2023-05-15T12:54:12.970Z,4.93
2023-05-15T12:55:44.526Z,4.42
2023-05-15T12:57:16.048Z,4.43
2023-05-15T12:58:47.761Z,4.17
2023-05-15T13:00:19.279Z,4.40
2023-05-15T13:01:50.952Z,4.23
2023-05-15T13:03:22.581Z,3.73
2023-05-15T13:04:54.140Z,3.59
2023-05-15T13:06:34.622Z,3.59
2023-05-15T13:08:13.727Z,3.59
2023-05-15T13:09:45.309Z,4.35
2023-05-15T13:11:16.870Z,4.15
2023-05-15T13:12:48.585Z,3.97
2023-05-15T13:14:20.115Z,3.72
2023-05-15T13:15:51.830Z,3.68
2023-05-15T13:17:23.526Z,3.78
2023-05-15T13:18:55.114Z,3.81
2023-05-15T13:20:26.997Z,3.81
2023-05-15T13:21:58.708Z,3.58
2023-05-15T13:23:42.425Z,3.52
2023-05-15T13:25:13.992Z,3.94
2023-05-15T13:26:45.637Z,3.82
2023-05-15T13:28:17.156Z,3.70
2023-05-15T13:29:48.655Z,3.58
2023-05-15T13:31:20.229Z,3.25
2023-05-15T13:32:54.717Z,3.25
2023-05-15T13:34:27.472Z,3.24
2023-05-15T13:35:59.062Z,3.15
2023-05-15T13:37:30.649Z,3.04
2023-05-15T13:39:02.266Z,3.04
2023-05-15T13:40:33.816Z,2.90
2023-05-15T13:42:05.367Z,3.08
2023-05-15T13:43:36.935Z,2.85
2023-05-15T13:45:08.658Z,3.17
2023-05-15T13:46:40.405Z,3.47
2023-05-15T13:48:12.131Z,3.49
2023-05-15T13:49:44.359Z,3.51
2023-05-15T13:51:20.932Z,3.40
2023-05-15T13:52:52.497Z,3.32
2023-05-15T13:54:24.054Z,3.66
2023-05-15T13:55:55.759Z,3.98
2023-05-15T13:57:27.535Z,4.12
2023-05-15T13:58:59.084Z,3.73
2023-05-15T14:00:30.655Z,3.74
2023-05-15T14:02:02.187Z,3.46
2023-05-15T14:03:33.799Z,3.80
2023-05-15T14:05:05.528Z,4.10
2023-05-15T14:06:37.210Z,4.24
2023-05-15T14:08:09.020Z,4.00
2023-05-15T14:09:40.634Z,3.97
2023-05-15T14:11:12.223Z,4.32
2023-05-15T14:12:43.766Z,4.13
2023-05-15T14:14:15.398Z,4.03
2023-05-15T14:15:46.978Z,4.11
2023-05-15T14:17:18.629Z,4.73
2023-05-15T14:18:55.564Z,5.03
2023-05-15T14:20:27.450Z,5.02
2023-05-15T14:21:59.166Z,4.86
2023-05-15T14:23:30.765Z,4.74
2023-05-15T14:25:02.647Z,4.70
2023-05-15T14:26:34.230Z,5.04
2023-05-15T14:28:05.799Z,4.94
2023-05-15T14:29:38.242Z,4.76
2023-05-15T14:31:09.965Z,4.96
2023-05-15T14:32:42.622Z,5.18
2023-05-15T14:34:14.174Z,5.62
2023-05-15T14:35:45.861Z,5.65
2023-05-15T14:37:17.367Z,5.49
2023-05-15T14:38:48.888Z,4.81
2023-05-15T14:40:20.506Z,4.57
2023-05-15T14:41:52.355Z,4.46
2023-05-15T14:43:23.873Z,4.32
2023-05-15T14:44:55.646Z,4.46
2023-05-15T14:46:27.252Z,4.12
2023-05-15T14:47:58.952Z,4.14
2023-05-15T14:49:30.493Z,4.42
2023-05-15T14:51:01.938Z,4.28
2023-05-15T14:52:33.456Z,4.37
2023-05-15T14:54:05.074Z,4.58
2023-05-15T14:55:36.705Z,4.85
2023-05-15T14:57:08.183Z,5.02
2023-05-15T14:58:39.730Z,5.98
2023-05-15T15:00:11.219Z,6.17
2023-05-15T15:01:42.842Z,6.38
2023-05-15T15:03:14.705Z,6.24
2023-05-15T15:04:46.243Z,7.12
2023-05-15T15:06:17.737Z,7.50
2023-05-15T15:07:49.232Z,7.16
2023-05-15T15:09:21.449Z,6.04
2023-05-15T15:10:53.493Z,5.37
2023-05-15T15:12:24.992Z,4.91
2023-05-15T15:13:56.724Z,4.44
2023-05-15T15:15:28.188Z,4.26
2023-05-15T15:16:59.687Z,4.64
2023-05-15T15:18:31.206Z,4.48
2023-05-15T15:20:02.791Z,4.25
2023-05-15T15:21:34.293Z,4.18
2023-05-15T15:23:05.753Z,3.97
2023-05-15T15:24:37.227Z,3.67
2023-05-15T15:26:08.766Z,3.46
2023-05-15T15:27:40.255Z,3.34
2023-05-15T15:29:11.913Z,3.27
2023-05-15T15:30:43.463Z,3.19
2023-05-15T15:32:15.108Z,3.11
2023-05-15T15:33:46.740Z,2.89
2023-05-15T15:35:18.270Z,3.08
2023-05-15T15:36:49.856Z,3.16
2023-05-15T15:38:21.346Z,3.32
2023-05-15T15:39:52.820Z,3.81
2023-05-15T15:41:24.313Z,4.12
2023-05-15T15:42:55.897Z,4.47
2023-05-15T15:44:27.564Z,4.41
2023-05-15T15:45:59.393Z,5.37
2023-05-15T15:47:30.948Z,5.44
2023-05-15T15:49:03.904Z,5.78
2023-05-15T15:50:36.788Z,6.25
2023-05-15T15:52:08.349Z,6.39
2023-05-15T15:53:39.832Z,6.39
2023-05-15T15:55:11.439Z,5.85
2023-05-15T15:56:43.217Z,6.72
2023-05-15T15:58:14.929Z,6.52
2023-05-15T15:59:46.586Z,6.32
2023-05-15T16:01:18.138Z,6.08
2023-05-15T16:02:49.685Z,6.28
2023-05-15T16:04:21.480Z,6.47
2023-05-15T16:05:52.958Z,6.20
2023-05-15T16:07:24.887Z,6.30
2023-05-15T16:08:56.369Z,6.16
2023-05-15T16:10:27.912Z,5.94
2023-05-15T16:11:59.632Z,5.82
2023-05-15T16:13:31.083Z,5.76
2023-05-15T16:15:17.493Z,5.86
2023-05-15T16:16:53.244Z,5.77
2023-05-15T16:18:24.927Z,5.72
2023-05-15T16:19:57.050Z,6.13
2023-05-15T16:21:28.883Z,5.61
2023-05-15T16:23:00.349Z,6.08
2023-05-15T16:24:32.025Z,6.22
2023-05-15T16:26:03.432Z,6.28
2023-05-15T16:27:34.919Z,6.56
2023-05-15T16:29:06.485Z,5.72
2023-05-15T16:30:48.271Z,5.76
2023-05-15T16:32:20.723Z,5.94
2023-05-15T16:33:52.353Z,6.05
2023-05-15T16:35:23.813Z,6.44
2023-05-15T16:36:55.416Z,6.58
2023-05-15T16:38:26.803Z,6.22
2023-05-15T16:40:19.486Z,6.05
2023-05-15T16:41:51.440Z,5.87
2023-05-15T16:43:23.061Z,5.69
2023-05-15T16:44:54.663Z,5.31
2023-05-15T16:46:27.257Z,5.32
2023-05-15T16:48:14.480Z,5.19
2023-05-15T16:49:48.306Z,4.80
2023-05-15T16:51:30.898Z,4.39
2023-05-15T16:53:07.696Z,4.49
2023-05-15T16:54:39.540Z,4.40
2023-05-15T16:56:42.289Z,4.31
2023-05-15T16:58:23.951Z,4.33
2023-05-15T16:59:55.356Z,4.43
2023-05-15T17:01:42.512Z,4.16
2023-05-15T17:03:30.030Z,4.00
2023-05-15T17:05:03.838Z,4.49
2023-05-15T17:06:56.580Z,4.05
2023-05-15T17:08:38.673Z,4.35
2023-05-15T17:10:31.047Z,4.30
2023-05-15T17:12:07.875Z,4.25
2023-05-15T17:13:56.966Z,4.00
2023-05-15T17:15:28.662Z,4.13
2023-05-15T17:17:01.188Z,4.05
2023-05-15T17:18:33.693Z,4.03
2023-05-15T17:20:12.622Z,3.73
2023-05-15T17:24:07.822Z,3.59
2023-05-15T17:25:40.792Z,3.81
2023-05-15T17:27:23.432Z,3.91
2023-05-15T17:28:55.730Z,4.42
2023-05-15T17:30:37.102Z,4.96
2023-05-15T17:32:09.034Z,5.79
2023-05-15T17:33:40.777Z,6.04
2023-05-15T17:35:12.283Z,6.29
2023-05-15T17:36:44.258Z,6.29
2023-05-15T17:38:25.537Z,6.46
2023-05-15T17:39:58.351Z,6.67
2023-05-15T17:41:30.967Z,6.35
2023-05-15T17:43:02.384Z,6.57
2023-05-15T17:44:34.499Z,6.54
2023-05-15T17:46:06.119Z,6.79
2023-05-15T17:47:37.671Z,7.01
2023-05-15T17:49:09.551Z,6.55
2023-05-15T17:50:41.701Z,6.68
2023-05-15T17:52:13.663Z,6.36
2023-05-15T17:53:46.374Z,6.76
2023-05-15T17:55:18.629Z,7.10
2023-05-15T17:56:50.299Z,6.71
2023-05-15T17:58:37.464Z,6.27
2023-05-15T18:00:09.336Z,6.43
2023-05-15T18:01:41.234Z,6.49
2023-05-15T18:03:12.737Z,6.53
2023-05-15T18:04:44.538Z,6.43
2023-05-15T18:06:16.673Z,6.76
2023-05-15T18:07:48.943Z,6.25
2023-05-15T18:09:23.140Z,5.98
2023-05-15T18:10:55.779Z,6.16
2023-05-15T18:12:27.315Z,6.05
2023-05-15T18:13:59.588Z,6.02
2023-05-15T18:15:30.980Z,5.91
2023-05-15T18:17:02.335Z,5.85
2023-05-15T18:18:34.074Z,5.65
2023-05-15T18:20:05.985Z,5.73
2023-05-15T18:21:38.261Z,5.90
2023-05-15T18:23:12.057Z,5.51
2023-05-15T18:24:43.485Z,5.75
2023-05-15T18:26:14.992Z,6.16
2023-05-15T18:27:46.355Z,6.01
2023-05-15T18:29:18.099Z,6.48
2023-05-15T18:30:49.833Z,6.30
2023-05-15T18:32:21.200Z,6.27
2023-05-15T18:33:52.620Z,6.30
2023-05-15T18:35:24.371Z,6.01
2023-05-15T18:37:01.248Z,6.09
2023-05-15T18:38:37.871Z,6.34
2023-05-15T18:40:09.178Z,6.13
2023-05-15T18:41:50.839Z,6.14
2023-05-15T18:43:22.359Z,6.33
2023-05-15T18:44:53.991Z,6.56
2023-05-15T18:46:26.849Z,6.82
2023-05-15T18:48:03.713Z,6.80
2023-05-15T18:49:46.444Z,7.18
2023-05-15T18:51:27.895Z,7.04
2023-05-15T18:52:59.258Z,7.63
2023-05-15T18:54:31.034Z,7.52
2023-05-15T18:56:02.632Z,7.75
2023-05-15T18:57:34.002Z,7.86
2023-05-15T18:59:05.358Z,9.11
2023-05-15T19:00:39.200Z,9.10
2023-05-15T19:02:10.998Z,9.00
2023-05-15T19:03:42.972Z,9.54
2023-05-15T19:05:14.464Z,9.51
2023-05-15T19:06:45.798Z,9.54
2023-05-15T19:08:17.127Z,9.29
2023-05-15T19:09:48.971Z,9.52
2023-05-15T19:11:36.844Z,9.83
2023-05-15T19:13:08.775Z,9.49
2023-05-15T19:14:45.263Z,10.13
2023-05-15T19:16:16.888Z,10.30
2023-05-15T19:17:48.681Z,10.48
2023-05-15T19:19:20.482Z,10.75
2023-05-15T19:20:53.231Z,11.22
2023-05-15T19:22:25.537Z,11.19
2023-05-15T19:23:57.151Z,10.79
2023-05-15T19:25:28.911Z,11.04
2023-05-15T19:27:00.408Z,10.57
2023-05-15T19:28:31.845Z,11.05
2023-05-15T19:30:32.312Z,10.90
2023-05-15T19:32:07.883Z,10.76
2023-05-15T19:33:39.410Z,10.65
2023-05-15T19:35:10.870Z,10.61
2023-05-15T19:36:42.440Z,10.57
2023-05-15T19:38:13.893Z,10.38
2023-05-15T19:39:57.748Z,10.32
2023-05-15T19:41:44.322Z,10.63
2023-05-15T19:43:16.885Z,10.24
2023-05-15T19:44:54.786Z,10.81
2023-05-15T19:46:26.315Z,10.54
2023-05-15T19:47:57.925Z,10.77
2023-05-15T19:49:49.501Z,11.05
2023-05-15T19:51:33.717Z,10.68
2023-05-15T19:53:05.614Z,10.98
2023-05-15T19:55:00.952Z,10.65
2023-05-15T19:56:58.366Z,10.86
2023-05-15T19:58:29.959Z,10.79
2023-05-15T20:00:22.578Z,11.00
2023-05-15T20:01:55.913Z,10.37
2023-05-15T20:03:44.241Z,10.36
2023-05-15T20:05:15.931Z,10.71
2023-05-15T20:06:59.637Z,10.87
2023-05-15T20:08:31.148Z,10.73
2023-05-15T20:10:44.951Z,9.95
2023-05-15T20:12:31.962Z,9.92
2023-05-15T20:14:25.594Z,9.81
2023-05-15T20:16:02.185Z,10.20
2023-05-15T20:17:54.022Z,10.18